createdAt,value
2022-08-05T00:04:01.648Z,62.58
2022-08-05T00:08:19.813Z,61.90
2022-08-05T00:12:30.543Z,62.76
2022-08-05T00:16:36.215Z,61.94
2022-08-05T00:20:56.686Z,62.06
2022-08-05T00:25:01.808Z,61.72
2022-08-05T00:29:07.946Z,62.77
2022-08-05T00:34:42.474Z,62.43
2022-08-05T00:37:52.324Z,62.21
2022-08-05T00:41:58.831Z,61.69
2022-08-05T00:46:02.892Z,62.37
2022-08-05T00:50:09.238Z,61.43
2022-08-05T00:54:13.665Z,62.36
2022-08-05T00:58:19.186Z,61.33
2022-08-05T01:02:24.410Z,61.96
2022-08-05T01:06:32.684Z,62.24
2022-08-05T01:10:52.376Z,60.94
2022-08-05T01:15:05.257Z,61.27
2022-08-05T01:19:56.933Z,61.33
2022-08-05T01:24:13.276Z,60.66
2022-08-05T01:28:26.322Z,62.69
2022-08-05T01:32:33.862Z,62.69
2022-08-05T01:36:46.918Z,62.83
2022-08-05T01:40:52.513Z,63.07
2022-08-05T01:44:59.205Z,63.40
2022-08-05T01:49:23.156Z,63.51
2022-08-05T01:53:57.251Z,63.86
2022-08-05T01:58:10.299Z,63.68
2022-08-05T02:02:28.417Z,63.58
2022-08-05T02:06:37.370Z,63.92
2022-08-05T02:10:46.119Z,63.92
2022-08-05T02:14:55.216Z,63.74
2022-08-05T02:19:07.024Z,63.64
2022-08-05T02:23:13.583Z,64.72
2022-08-05T02:27:20.748Z,64.95
2022-08-05T02:31:37.052Z,64.67
2022-08-05T02:35:57.504Z,64.32
2022-08-05T02:40:06.889Z,65.29
2022-08-05T02:44:15.767Z,65.75
2022-08-05T02:48:20.934Z,65.29
2022-08-05T02:52:35.212Z,65.83
2022-08-05T02:56:40.132Z,66.54
2022-08-05T03:00:50.391Z,67.00
2022-08-05T03:04:56.638Z,66.72
2022-08-05T03:09:02.070Z,66.33
2022-08-05T03:13:16.744Z,65.92
2022-08-05T03:17:20.764Z,66.89
2022-08-05T03:21:28.857Z,67.03
2022-08-05T03:26:04.859Z,66.69
2022-08-05T03:30:07.222Z,66.89
2022-08-05T03:34:11.917Z,66.48
2022-08-05T03:38:15.804Z,66.40
2022-08-05T03:42:20.449Z,66.28
2022-08-05T03:46:26.853Z,65.90
2022-08-05T03:50:43.180Z,65.12
2022-08-05T03:55:00.072Z,64.84
2022-08-05T03:59:23.129Z,66.04
2022-08-05T04:03:31.164Z,67.31
2022-08-05T04:07:46.769Z,67.17
2022-08-05T04:12:01.562Z,67.62
2022-08-05T04:16:08.010Z,67.14
2022-08-05T04:20:21.313Z,66.70
2022-08-05T04:24:27.749Z,67.34
2022-08-05T04:28:31.826Z,67.68
2022-08-05T04:32:37.754Z,67.21
2022-08-05T04:36:46.108Z,67.42
2022-08-05T04:40:55.179Z,66.93
2022-08-05T04:44:58.826Z,67.76
2022-08-05T04:49:06.212Z,66.76
2022-08-05T04:53:19.346Z,66.04
2022-08-05T04:57:24.249Z,66.59
2022-08-05T05:02:07.117Z,66.92
2022-08-05T05:06:35.807Z,66.45
2022-08-05T05:10:23.743Z,67.60
2022-08-05T05:14:31.462Z,67.66
2022-08-05T05:18:35.945Z,67.63
2022-08-05T05:22:43.944Z,67.14
2022-08-05T05:26:47.993Z,66.25
2022-08-05T05:30:55.795Z,65.40
2022-08-05T05:34:59.015Z,65.41
2022-08-05T05:39:04.503Z,66.00
2022-08-05T05:43:08.561Z,65.43
2022-08-05T05:47:21.653Z,65.04
2022-08-05T05:51:27.888Z,65.65
2022-08-05T05:55:51.589Z,65.16
2022-08-05T05:59:57.731Z,65.85
2022-08-05T06:04:03.727Z,65.82
2022-08-05T06:08:07.675Z,64.05
2022-08-05T06:12:14.200Z,64.97
2022-08-05T06:16:28.742Z,64.79
2022-08-05T06:20:35.685Z,64.57
2022-08-05T06:24:46.652Z,63.80
2022-08-05T06:28:52.809Z,62.45
2022-08-05T06:32:56.642Z,63.27
2022-08-05T06:37:00.499Z,63.27
2022-08-05T06:41:05.298Z,62.77
2022-08-05T06:45:20.999Z,62.41
2022-08-05T06:50:00.552Z,61.84
2022-08-05T06:53:53.468Z,59.10
2022-08-05T06:58:11.753Z,58.11
2022-08-05T07:02:22.824Z,57.25
2022-08-05T07:06:27.709Z,55.63
2022-08-05T07:10:32.619Z,54.61
2022-08-05T07:14:54.196Z,51.62
2022-08-05T07:18:58.833Z,50.77
2022-08-05T07:23:03.009Z,48.51
2022-08-05T07:27:08.835Z,46.98
2022-08-05T07:31:41.032Z,44.80
2022-08-05T07:36:04.336Z,45.55
2022-08-05T07:40:32.558Z,44.31
2022-08-05T07:44:35.752Z,42.37
2022-08-05T07:49:02.810Z,42.25
2022-08-05T07:53:05.938Z,40.50
2022-08-05T07:57:22.860Z,39.36
2022-08-05T08:01:34.563Z,40.18
2022-08-05T08:05:39.569Z,41.47
2022-08-05T08:09:44.827Z,39.07
2022-08-05T08:14:01.146Z,38.85
2022-08-05T08:18:09.733Z,38.67
2022-08-05T08:22:17.766Z,37.65
2022-08-05T08:26:29.354Z,38.28
2022-08-05T08:30:40.703Z,36.66
2022-08-05T08:34:51.168Z,38.95
2022-08-05T08:38:55.996Z,37.40
2022-08-05T08:45:19.384Z,37.36
2022-08-05T08:48:06.745Z,36.44
2022-08-05T08:52:04.149Z,37.42
2022-08-05T08:56:10.161Z,34.89
2022-08-05T09:00:15.917Z,35.67
2022-08-05T09:04:23.187Z,35.30
2022-08-05T09:08:34.738Z,36.02
2022-08-05T09:12:40.404Z,34.83
2022-08-05T09:16:49.021Z,34.89
2022-08-05T09:20:52.452Z,34.86
2022-08-05T09:25:00.331Z,35.86
2022-08-05T09:29:06.740Z,35.48
2022-08-05T09:33:15.205Z,34.35
2022-08-05T09:38:12.173Z,34.79
2022-08-05T09:41:59.828Z,35.04
2022-08-05T09:46:06.960Z,33.28
2022-08-05T09:50:18.015Z,35.08
2022-08-05T09:54:37.682Z,33.86
2022-08-05T09:58:43.963Z,33.37
2022-08-05T10:02:54.884Z,33.01
2022-08-05T10:07:06.128Z,34.07
2022-08-05T10:11:31.305Z,32.67
2022-08-05T10:15:42.105Z,30.82
2022-08-05T10:20:04.207Z,30.19
2022-08-05T10:24:14.017Z,30.74
2022-08-05T10:28:30.307Z,32.21
2022-08-05T10:32:53.604Z,31.77
2022-08-05T10:36:58.247Z,30.39
2022-08-05T10:41:12.458Z,29.75
2022-08-05T10:45:23.363Z,30.10
2022-08-05T10:49:49.005Z,31.39
2022-08-05T10:54:01.618Z,31.96
2022-08-05T10:58:11.860Z,32.54
2022-08-05T11:02:37.877Z,28.92
2022-08-05T11:07:08.446Z,32.02
2022-08-05T11:11:44.426Z,31.67
2022-08-05T11:16:22.918Z,32.24
2022-08-05T11:20:44.758Z,30.81
2022-08-05T11:25:01.552Z,29.76
2022-08-05T11:29:38.279Z,31.06
2022-08-05T11:33:55.862Z,31.03
2022-08-05T11:38:28.357Z,29.33
2022-08-05T11:42:27.939Z,29.76
2022-08-05T11:46:34.447Z,28.03
2022-08-05T11:50:42.633Z,30.63
2022-08-05T11:54:55.016Z,30.08
2022-08-05T11:58:59.097Z,31.73
2022-08-05T12:03:29.086Z,30.61
2022-08-05T12:08:08.669Z,28.50
2022-08-05T12:12:02.601Z,28.15
2022-08-05T12:16:15.028Z,29.62
2022-08-05T12:20:27.758Z,29.79
2022-08-05T12:24:43.730Z,29.52
2022-08-05T12:28:53.281Z,29.52
2022-08-05T12:33:07.278Z,27.67
2022-08-05T12:37:22.543Z,29.15
2022-08-05T12:41:43.575Z,29.29
2022-08-05T12:45:55.137Z,29.76
2022-08-05T12:50:04.494Z,27.36
2022-08-05T12:54:16.576Z,29.55
2022-08-05T12:58:49.311Z,29.48
2022-08-05T13:02:55.670Z,30.03
2022-08-05T13:07:00.580Z,28.95
2022-08-05T13:11:05.101Z,28.78
2022-08-05T13:15:16.561Z,29.37
2022-08-05T13:19:52.196Z,28.91
2022-08-05T13:23:52.392Z,27.94
2022-08-05T13:27:57.607Z,29.17
2022-08-05T13:32:04.282Z,28.81
2022-08-05T13:36:09.157Z,27.78
2022-08-05T13:40:35.584Z,28.65
2022-08-05T13:44:39.136Z,28.49
2022-08-05T13:48:57.850Z,30.40
2022-08-05T13:53:03.471Z,28.95
2022-08-05T13:57:13.002Z,28.30
2022-08-05T14:01:18.730Z,28.06
2022-08-05T14:05:29.269Z,30.18
2022-08-05T14:09:47.053Z,29.38
2022-08-05T14:13:54.920Z,28.41
2022-08-05T14:18:00.692Z,29.90
2022-08-05T14:22:09.901Z,28.76
2022-08-05T14:26:35.792Z,29.35
2022-08-05T14:30:39.348Z,29.15
2022-08-05T14:34:49.381Z,29.94
2022-08-05T14:38:57.513Z,30.48
2022-08-05T14:43:01.071Z,32.32
2022-08-05T14:47:04.746Z,31.21
2022-08-05T14:51:15.453Z,32.21
2022-08-05T14:55:21.203Z,31.56
2022-08-05T14:59:25.329Z,33.02
2022-08-05T15:03:39.037Z,31.38
2022-08-05T15:08:06.681Z,32.94
2022-08-05T15:12:16.543Z,31.50
2022-08-05T15:16:30.259Z,33.67
2022-08-05T15:20:33.333Z,33.02
2022-08-05T15:24:39.742Z,33.72
2022-08-05T15:28:44.879Z,33.74
2022-08-05T15:32:55.678Z,33.05
2022-08-05T15:37:03.463Z,35.70
2022-08-05T15:41:21.129Z,37.37
2022-08-05T15:45:38.538Z,35.99
2022-08-05T15:49:56.605Z,35.67
2022-08-05T15:54:02.213Z,36.25
2022-08-05T15:58:16.507Z,36.67
2022-08-05T16:02:25.415Z,37.05
2022-08-05T16:06:30.062Z,38.99
2022-08-05T16:10:33.764Z,38.00
2022-08-05T16:14:37.258Z,37.88
2022-08-05T16:18:52.747Z,39.90
2022-08-05T16:22:57.450Z,39.01
2022-08-05T16:27:02.525Z,40.00
2022-08-05T16:31:07.525Z,40.07
2022-08-05T16:35:15.957Z,35.08
2022-08-05T16:39:21.692Z,35.49
2022-08-05T16:43:44.833Z,35.68
2022-08-05T16:47:54.390Z,35.07
2022-08-05T16:52:02.844Z,35.48
2022-08-05T16:56:08.549Z,36.45
2022-08-05T17:00:33.992Z,36.54
2022-08-05T17:04:38.108Z,37.83
2022-08-05T17:08:53.111Z,38.32
2022-08-05T17:12:57.849Z,38.24
2022-08-05T17:17:02.692Z,38.34
2022-08-05T17:21:06.126Z,39.77
2022-08-05T17:25:33.910Z,39.64
2022-08-05T17:29:40.969Z,40.92
2022-08-05T17:33:48.472Z,41.70
2022-08-05T17:37:54.258Z,41.56
2022-08-05T17:42:19.843Z,41.27
2022-08-05T17:46:30.984Z,41.15
2022-08-05T17:50:34.278Z,41.37
2022-08-05T17:54:38.123Z,41.56
2022-08-05T17:58:43.172Z,41.79
2022-08-05T18:02:48.725Z,41.36
2022-08-05T18:06:52.097Z,41.45
2022-08-05T18:10:56.227Z,42.25
2022-08-05T18:15:02.519Z,42.22
2022-08-05T18:19:07.514Z,42.95
2022-08-05T18:23:12.139Z,43.18
2022-08-05T18:27:18.943Z,43.69
2022-08-05T18:31:25.026Z,43.03
2022-08-05T18:36:01.006Z,43.97
2022-08-05T18:40:34.663Z,44.92
2022-08-05T18:44:15.327Z,45.35
2022-08-05T18:48:41.516Z,44.53
2022-08-05T18:52:50.959Z,45.16
2022-08-05T18:56:57.144Z,44.88
2022-08-05T19:01:01.378Z,44.96
2022-08-05T19:06:05.449Z,44.71
2022-08-05T19:09:40.229Z,44.42
2022-08-05T19:13:47.869Z,45.00
2022-08-05T19:17:59.868Z,45.08
2022-08-05T19:22:17.060Z,44.55
2022-08-05T19:26:22.933Z,45.31
2022-08-05T19:30:28.897Z,45.03
2022-08-05T19:34:32.001Z,45.45
2022-08-05T19:38:37.364Z,45.13
2022-08-05T19:42:41.267Z,45.96
2022-08-05T19:46:44.972Z,45.34
2022-08-05T19:50:48.795Z,46.48
2022-08-05T19:54:56.724Z,46.24
2022-08-05T19:59:54.600Z,46.98
2022-08-05T20:03:27.552Z,46.78
2022-08-05T20:07:48.090Z,47.08
2022-08-05T20:11:54.050Z,47.38
2022-08-05T20:15:57.879Z,47.44
2022-08-05T20:20:05.349Z,47.39
2022-08-05T20:24:12.583Z,48.85
2022-08-05T20:28:20.696Z,49.04
2022-08-05T20:32:27.089Z,48.49
2022-08-05T20:36:30.917Z,48.65
2022-08-05T20:40:36.720Z,49.03
2022-08-05T20:44:41.555Z,47.93
2022-08-05T20:48:44.588Z,49.53
2022-08-05T20:52:49.893Z,48.39
2022-08-05T20:56:59.480Z,48.52
2022-08-05T21:01:09.191Z,48.64
2022-08-05T21:05:12.254Z,48.83
2022-08-05T21:09:16.508Z,47.94
2022-08-05T21:13:36.796Z,47.38
2022-08-05T21:17:44.649Z,47.97
2022-08-05T21:21:51.418Z,47.47
2022-08-05T21:25:55.493Z,47.18
2022-08-05T21:30:01.948Z,47.48
2022-08-05T21:34:07.420Z,47.35
2022-08-05T21:38:11.152Z,47.92
2022-08-05T21:42:30.802Z,48.47
2022-08-05T21:46:39.716Z,49.34
2022-08-05T21:50:54.163Z,49.70
2022-08-05T21:55:06.367Z,50.21
2022-08-05T21:59:24.322Z,50.57
2022-08-05T22:03:49.064Z,50.58
2022-08-05T22:07:58.750Z,51.34
2022-08-05T22:12:03.403Z,51.24
2022-08-05T22:16:40.406Z,51.00
2022-08-05T22:20:38.908Z,50.72
2022-08-05T22:25:02.044Z,49.81
2022-08-05T22:29:06.179Z,49.87
2022-08-05T22:33:15.484Z,49.17
2022-08-05T22:37:19.761Z,49.19
2022-08-05T22:42:04.894Z,48.99
2022-08-05T22:45:48.890Z,49.82
2022-08-05T22:50:22.839Z,49.40
2022-08-05T22:54:16.833Z,48.61
2022-08-05T22:58:28.495Z,48.92
2022-08-05T23:02:32.884Z,49.13
2022-08-05T23:06:36.744Z,49.33
2022-08-05T23:10:40.888Z,49.48
2022-08-05T23:14:46.049Z,49.12
2022-08-05T23:18:49.516Z,48.53
2022-08-05T23:22:56.130Z,49.10
2022-08-05T23:27:00.112Z,49.00
2022-08-05T23:31:17.560Z,51.01
2022-08-05T23:35:21.485Z,51.83
2022-08-05T23:39:44.417Z,52.63
2022-08-05T23:44:06.083Z,54.59
2022-08-05T23:48:13.719Z,54.77
2022-08-05T23:52:30.768Z,56.09
2022-08-05T23:56:34.819Z,56.63
